createdAt,value
2023-01-25T06:50:20.222Z,1.10
2023-01-25T06:53:22.273Z,1.30
2023-01-25T06:56:24.793Z,1.50
2023-01-25T06:59:26.505Z,1.70
2023-01-25T07:02:28.384Z,1.80
2023-01-25T07:05:30.450Z,2.00
2023-01-25T07:08:33.365Z,1.80
2023-01-25T07:11:36.100Z,1.90
2023-01-25T07:14:37.855Z,2.00
2023-01-25T07:17:39.796Z,2.00
2023-01-25T07:20:42.348Z,2.00
2023-01-25T07:23:45.033Z,2.00
2023-01-25T07:26:49.259Z,2.00
2023-01-25T07:29:51.221Z,2.00
2023-01-25T07:32:53.010Z,2.10
2023-01-25T07:36:03.069Z,2.00
2023-01-25T07:39:06.605Z,2.10
2023-01-25T07:42:08.829Z,2.10
2023-01-25T07:45:11.323Z,2.20
2023-01-25T07:48:13.938Z,2.30
2023-01-25T07:51:33.153Z,2.30
2023-01-25T07:54:35.001Z,2.20
2023-01-25T07:57:36.808Z,2.20
2023-01-25T08:00:38.842Z,2.10
2023-01-25T08:03:41.488Z,2.00
2023-01-25T08:06:45.735Z,2.00
2023-01-25T08:09:47.758Z,2.10
2023-01-25T08:12:50.318Z,2.10
2023-01-25T08:15:57.884Z,2.10
2023-01-25T08:19:01.910Z,2.20
2023-01-25T08:22:03.632Z,2.20
2023-01-25T08:25:06.006Z,2.20
2023-01-25T08:28:07.948Z,2.30
2023-01-25T08:31:15.928Z,2.30
2023-01-25T08:34:17.644Z,2.20
2023-01-25T08:37:20.366Z,2.20
2023-01-25T08:40:22.168Z,2.10
2023-01-25T08:43:24.058Z,2.20
2023-01-25T08:46:30.240Z,2.20
2023-01-25T08:49:34.619Z,2.30
2023-01-25T08:52:36.649Z,2.30
2023-01-25T08:55:38.546Z,2.30
2023-01-25T08:58:44.004Z,2.30
2023-01-25T09:01:46.897Z,2.40
2023-01-25T09:04:48.930Z,2.40
2023-01-25T09:07:51.135Z,2.40
2023-01-25T09:10:53.773Z,2.40
2023-01-25T09:13:55.911Z,2.30
2023-01-25T09:16:58.477Z,2.40
2023-01-25T09:20:01.661Z,2.40
2023-01-25T09:23:03.937Z,2.50
2023-01-25T09:26:07.078Z,2.40
2023-01-25T09:29:11.601Z,2.40
2023-01-25T09:32:13.809Z,2.50
2023-01-25T09:35:16.804Z,2.40
2023-01-25T09:38:19.279Z,2.50
2023-01-25T09:41:42.436Z,2.70
2023-01-25T09:45:13.133Z,2.70
2023-01-25T09:48:31.864Z,2.60
2023-01-25T09:51:46.078Z,2.60
2023-01-25T09:54:48.987Z,2.50
2023-01-25T09:57:54.561Z,2.50
2023-01-25T10:01:36.708Z,2.70
2023-01-25T10:04:44.462Z,2.70
2023-01-25T10:08:10.806Z,2.60
2023-01-25T10:11:24.832Z,2.40
2023-01-25T10:14:27.837Z,2.40
2023-01-25T10:17:38.783Z,2.40
2023-01-25T10:20:49.036Z,2.50
2023-01-25T10:24:09.392Z,2.60
2023-01-25T10:27:29.565Z,2.60
2023-01-25T10:30:41.177Z,2.60
2023-01-25T10:33:45.741Z,2.60
2023-01-25T10:36:54.465Z,2.70
2023-01-25T10:40:16.463Z,2.60
2023-01-25T10:43:20.952Z,2.60
2023-01-25T10:46:26.110Z,2.40
2023-01-25T10:49:51.001Z,2.50
2023-01-25T10:52:58.248Z,2.70
2023-01-25T10:56:11.352Z,2.80
2023-01-25T10:59:29.128Z,2.80
2023-01-25T11:02:47.892Z,2.90
2023-01-25T11:05:57.755Z,2.80
2023-01-25T11:09:00.102Z,3.00
2023-01-25T11:12:07.414Z,2.80
2023-01-25T11:15:25.788Z,2.60
2023-01-25T11:18:33.861Z,2.60
2023-01-25T11:21:35.701Z,2.70
2023-01-25T11:24:37.897Z,2.80
2023-01-25T11:27:39.660Z,2.70
2023-01-25T11:30:41.579Z,2.70
2023-01-25T11:33:43.494Z,2.70
2023-01-25T11:37:25.233Z,2.80
2023-01-25T11:40:38.278Z,2.60
2023-01-25T11:44:08.520Z,2.60
2023-01-25T11:47:24.437Z,2.60
2023-01-25T11:50:51.611Z,2.50
2023-01-25T11:54:27.145Z,2.60
2023-01-25T11:57:54.909Z,2.60
2023-01-25T12:01:13.237Z,2.60
2023-01-25T12:04:31.090Z,2.70
2023-01-25T12:07:44.600Z,2.70
2023-01-25T12:10:53.975Z,2.70
2023-01-25T12:14:05.516Z,2.70
2023-01-25T12:17:36.523Z,2.40
2023-01-25T12:20:52.526Z,2.40
2023-01-25T12:24:16.383Z,2.40
2023-01-25T12:27:35.832Z,2.50
2023-01-25T12:31:00.999Z,2.40
2023-01-25T12:34:09.095Z,2.10
2023-01-25T12:37:22.959Z,2.10
2023-01-25T12:41:02.500Z,1.90
2023-01-25T12:44:34.368Z,2.20
2023-01-25T12:47:57.884Z,2.30
2023-01-25T12:51:00.138Z,2.30
2023-01-25T12:54:07.443Z,2.20
2023-01-25T12:57:23.698Z,2.20
2023-01-25T13:00:50.023Z,2.40
2023-01-25T13:04:28.666Z,2.50
2023-01-25T13:07:42.182Z,2.40
2023-01-25T13:10:51.005Z,2.30
2023-01-25T13:13:52.835Z,2.30
2023-01-25T13:17:10.557Z,2.20
2023-01-25T13:20:48.829Z,2.20
2023-01-25T13:24:12.726Z,2.20
2023-01-25T13:27:31.817Z,2.40
2023-01-25T13:30:34.764Z,2.40
2023-01-25T13:33:36.926Z,2.50
2023-01-25T13:36:46.007Z,2.40
2023-01-25T13:39:51.126Z,2.40
2023-01-25T13:43:12.699Z,2.40
2023-01-25T13:46:18.961Z,2.60
2023-01-25T13:49:27.959Z,2.50
2023-01-25T13:52:32.235Z,2.60
2023-01-25T13:55:43.948Z,2.50
2023-01-25T13:58:48.055Z,2.40
2023-01-25T14:01:50.689Z,2.40
2023-01-25T14:04:53.147Z,2.30
2023-01-25T14:07:57.271Z,2.30
2023-01-25T14:10:59.290Z,2.30
2023-01-25T14:14:16.373Z,2.40
2023-01-25T14:17:22.198Z,2.60
2023-01-25T14:20:24.308Z,2.60
2023-01-25T14:23:29.900Z,2.60
2023-01-25T14:26:38.099Z,2.60
2023-01-25T14:29:40.083Z,2.60
2023-01-25T14:32:42.031Z,2.50
2023-01-25T14:36:11.704Z,2.50
2023-01-25T14:39:20.491Z,2.40
2023-01-25T14:42:22.291Z,2.40
2023-01-25T14:45:26.889Z,2.30
2023-01-25T14:48:38.425Z,2.20
2023-01-25T14:51:49.066Z,2.10
2023-01-25T14:54:54.760Z,2.00
2023-01-25T14:58:00.639Z,1.90
2023-01-25T15:01:03.387Z,1.90
2023-01-25T15:04:11.638Z,1.90
2023-01-25T15:07:51.868Z,1.90
2023-01-25T15:10:55.925Z,1.90
2023-01-25T15:14:02.600Z,2.00
2023-01-25T15:17:04.284Z,1.90
2023-01-25T15:20:06.649Z,1.90
2023-01-25T15:23:29.674Z,1.90
2023-01-25T15:26:33.467Z,2.00
2023-01-25T15:29:35.125Z,2.00
2023-01-25T15:32:36.893Z,2.00
2023-01-25T15:35:38.753Z,2.00
2023-01-25T15:38:41.243Z,1.90
2023-01-25T15:41:43.366Z,1.90
2023-01-25T15:44:45.024Z,1.80
2023-01-25T15:47:46.797Z,1.60
2023-01-25T15:50:49.871Z,1.70
2023-01-25T15:53:52.189Z,1.70
2023-01-25T15:56:57.504Z,1.80
2023-01-25T16:00:01.927Z,1.90
2023-01-25T16:03:03.990Z,1.70
2023-01-25T16:06:20.447Z,1.90
2023-01-25T16:09:26.996Z,1.90
2023-01-25T16:12:28.666Z,2.00
2023-01-25T16:15:30.329Z,2.00
2023-01-25T16:18:32.798Z,2.00
2023-01-25T16:21:34.484Z,2.10
2023-01-25T16:24:39.245Z,2.00
2023-01-25T16:27:41.154Z,2.10
2023-01-25T16:30:45.052Z,2.20
2023-01-25T16:33:47.328Z,2.10
2023-01-25T16:36:50.925Z,2.10
2023-01-25T16:39:53.661Z,2.00
2023-01-25T16:42:55.918Z,2.10
2023-01-25T16:45:58.880Z,2.20
2023-01-25T16:49:04.264Z,2.00
2023-01-25T16:52:06.417Z,1.80
2023-01-25T16:55:11.246Z,1.90
2023-01-25T16:58:13.151Z,2.00
